Terminal Aerodrome Forecast
Issued by NWS

Home | Current Version | Previous Version | Text Only | Print | Product List | Glossary On
Versions: 1 2 3 4 5 6 7 8 9 10 11 12 13 14
000
FTUS42 TJSJ 010500
TAFISX
TAF
TISX 010533Z 0106/0206 06009KT P6SM VCSH SCT025
     FM011300 08016G24KT P6SM SCT025
     FM012300 06009KT P6SM VCSH FEW025
      AMD NOT SKED=

USA.gov is the U.S. government's official web portal to all federal, state and local government web resources and services.